sensor_id;sensor_type;location;lat;lon;timestamp;P1;durP1;ratioP1;P2;durP2;ratioP2
37791;SDS011;29527;55.766;37.570;2023-07-29T00:00:49;8.70;;;3.15;;
37791;SDS011;29527;55.766;37.570;2023-07-29T00:03:14;4.95;;;2.80;;
37791;SDS011;29527;55.766;37.570;2023-07-29T00:05:40;4.40;;;2.30;;
37791;SDS011;29527;55.766;37.570;2023-07-29T00:08:06;6.22;;;2.92;;
37791;SDS011;29527;55.766;37.570;2023-07-29T00:10:32;3.60;;;3.17;;
37791;SDS011;29527;55.766;37.570;2023-07-29T00:13:02;3.45;;;2.80;;
37791;SDS011;29527;55.766;37.570;2023-07-29T00:15:29;4.78;;;2.90;;
37791;SDS011;29527;55.766;37.570;2023-07-29T00:17:54;4.88;;;2.67;;
37791;SDS011;29527;55.766;37.570;2023-07-29T00:20:19;6.38;;;2.55;;
37791;SDS011;29527;55.766;37.570;2023-07-29T00:22:45;2.95;;;2.33;;
37791;SDS011;29527;55.766;37.570;2023-07-29T00:25:11;5.35;;;3.28;;
37791;SDS011;29527;55.766;37.570;2023-07-29T00:27:36;3.80;;;3.00;;
37791;SDS011;29527;55.766;37.570;2023-07-29T00:30:02;3.58;;;3.28;;
37791;SDS011;29527;55.766;37.570;2023-07-29T00:32:30;3.63;;;2.85;;
37791;SDS011;29527;55.766;37.570;2023-07-29T00:34:56;3.85;;;3.22;;
37791;SDS011;29527;55.766;37.570;2023-07-29T00:37:21;5.25;;;3.30;;
37791;SDS011;29527;55.766;37.570;2023-07-29T00:39:47;5.20;;;2.95;;
37791;SDS011;29527;55.766;37.570;2023-07-29T00:42:12;5.20;;;3.30;;
37791;SDS011;29527;55.766;37.570;2023-07-29T00:44:38;7.25;;;3.10;;
37791;SDS011;29527;55.766;37.570;2023-07-29T00:47:04;4.45;;;2.75;;
37791;SDS011;29527;55.766;37.570;2023-07-29T00:49:31;3.60;;;3.15;;
37791;SDS011;29527;55.766;37.570;2023-07-29T00:51:57;3.78;;;2.97;;
37791;SDS011;29527;55.766;37.570;2023-07-29T00:54:23;3.83;;;3.17;;
37791;SDS011;29527;55.766;37.570;2023-07-29T00:56:49;10.27;;;5.45;;
37791;SDS011;29527;55.766;37.570;2023-07-29T00:59:15;3.63;;;3.08;;
37791;SDS011;29527;55.766;37.570;2023-07-29T01:01:40;4.45;;;3.70;;
37791;SDS011;29527;55.766;37.570;2023-07-29T01:04:06;3.97;;;3.20;;
37791;SDS011;29527;55.766;37.570;2023-07-29T01:09:03;5.00;;;3.78;;
37791;SDS011;29527;55.766;37.570;2023-07-29T01:11:41;5.60;;;3.55;;
37791;SDS011;29527;55.766;37.570;2023-07-29T01:16:55;4.90;;;3.20;;
37791;SDS011;29527;55.766;37.570;2023-07-29T01:22:07;4.43;;;3.20;;
37791;SDS011;29527;55.766;37.570;2023-07-29T01:24:33;6.00;;;2.78;;
37791;SDS011;29527;55.766;37.570;2023-07-29T01:26:59;4.47;;;2.63;;
37791;SDS011;29527;55.766;37.570;2023-07-29T01:29:27;3.70;;;2.97;;
37791;SDS011;29527;55.766;37.570;2023-07-29T01:31:54;4.45;;;2.90;;
37791;SDS011;29527;55.766;37.570;2023-07-29T01:34:48;5.25;;;3.00;;
37791;SDS011;29527;55.766;37.570;2023-07-29T01:37:17;3.97;;;2.92;;
37791;SDS011;29527;55.766;37.570;2023-07-29T01:39:48;7.00;;;2.80;;
37791;SDS011;29527;55.766;37.570;2023-07-29T01:42:15;8.88;;;3.28;;
37791;SDS011;29527;55.766;37.570;2023-07-29T01:44:41;4.55;;;3.05;;
37791;SDS011;29527;55.766;37.570;2023-07-29T01:47:07;4.13;;;3.30;;
37791;SDS011;29527;55.766;37.570;2023-07-29T01:49:33;4.90;;;2.75;;
37791;SDS011;29527;55.766;37.570;2023-07-29T01:51:58;5.85;;;3.35;;
37791;SDS011;29527;55.766;37.570;2023-07-29T01:54:24;5.43;;;3.00;;
37791;SDS011;29527;55.766;37.570;2023-07-29T01:56:50;6.32;;;3.05;;
37791;SDS011;29527;55.766;37.570;2023-07-29T01:59:16;5.78;;;3.20;;
37791;SDS011;29527;55.766;37.570;2023-07-29T02:01:42;5.45;;;3.05;;
37791;SDS011;29527;55.766;37.570;2023-07-29T02:04:08;3.42;;;2.70;;
37791;SDS011;29527;55.766;37.570;2023-07-29T02:06:33;4.20;;;3.10;;
37791;SDS011;29527;55.766;37.570;2023-07-29T02:08:59;3.47;;;2.78;;
37791;SDS011;29527;55.766;37.570;2023-07-29T02:11:25;4.75;;;3.00;;
37791;SDS011;29527;55.766;37.570;2023-07-29T02:13:53;4.53;;;2.83;;
37791;SDS011;29527;55.766;37.570;2023-07-29T02:16:20;3.75;;;2.60;;
37791;SDS011;29527;55.766;37.570;2023-07-29T02:18:46;3.28;;;2.88;;
37791;SDS011;29527;55.766;37.570;2023-07-29T02:21:11;5.35;;;3.03;;
37791;SDS011;29527;55.766;37.570;2023-07-29T02:23:37;4.45;;;2.95;;
37791;SDS011;29527;55.766;37.570;2023-07-29T02:26:02;3.75;;;2.67;;
37791;SDS011;29527;55.766;37.570;2023-07-29T02:28:28;2.88;;;2.55;;
37791;SDS011;29527;55.766;37.570;2023-07-29T02:31:14;5.13;;;2.78;;
37791;SDS011;29527;55.766;37.570;2023-07-29T02:33:45;4.05;;;2.92;;
37791;SDS011;29527;55.766;37.570;2023-07-29T02:36:11;5.28;;;2.90;;
37791;SDS011;29527;55.766;37.570;2023-07-29T02:38:38;3.65;;;2.78;;
37791;SDS011;29527;55.766;37.570;2023-07-29T02:41:03;3.85;;;3.00;;
37791;SDS011;29527;55.766;37.570;2023-07-29T02:43:29;5.57;;;2.90;;
37791;SDS011;29527;55.766;37.570;2023-07-29T02:45:54;3.40;;;2.83;;
37791;SDS011;29527;55.766;37.570;2023-07-29T02:48:20;3.72;;;3.15;;
37791;SDS011;29527;55.766;37.570;2023-07-29T02:50:45;3.38;;;3.08;;
37791;SDS011;29527;55.766;37.570;2023-07-29T02:53:11;3.92;;;3.03;;
37791;SDS011;29527;55.766;37.570;2023-07-29T02:55:40;7.18;;;3.25;;
37791;SDS011;29527;55.766;37.570;2023-07-29T02:58:06;5.07;;;3.22;;
37791;SDS011;29527;55.766;37.570;2023-07-29T03:00:32;4.10;;;3.13;;
37791;SDS011;29527;55.766;37.570;2023-07-29T03:02:58;6.20;;;3.35;;
37791;SDS011;29527;55.766;37.570;2023-07-29T03:05:24;5.78;;;3.75;;
37791;SDS011;29527;55.766;37.570;2023-07-29T03:07:50;6.15;;;3.00;;
37791;SDS011;29527;55.766;37.570;2023-07-29T03:10:15;4.82;;;3.80;;
37791;SDS011;29527;55.766;37.570;2023-07-29T03:12:41;5.47;;;3.53;;
37791;SDS011;29527;55.766;37.570;2023-07-29T03:15:06;6.88;;;3.85;;
37791;SDS011;29527;55.766;37.570;2023-07-29T03:17:32;6.20;;;3.78;;
37791;SDS011;29527;55.766;37.570;2023-07-29T03:19:57;4.10;;;3.67;;
37791;SDS011;29527;55.766;37.570;2023-07-29T03:22:23;5.07;;;3.60;;
37791;SDS011;29527;55.766;37.570;2023-07-29T03:24:49;6.97;;;4.35;;
37791;SDS011;29527;55.766;37.570;2023-07-29T03:27:14;3.92;;;3.60;;
37791;SDS011;29527;55.766;37.570;2023-07-29T03:29:41;6.32;;;5.72;;
37791;SDS011;29527;55.766;37.570;2023-07-29T03:32:07;7.88;;;4.90;;
37791;SDS011;29527;55.766;37.570;2023-07-29T03:34:33;5.93;;;4.28;;
37791;SDS011;29527;55.766;37.570;2023-07-29T03:37:00;6.43;;;4.47;;
37791;SDS011;29527;55.766;37.570;2023-07-29T03:39:26;7.45;;;3.90;;
37791;SDS011;29527;55.766;37.570;2023-07-29T03:41:52;4.30;;;3.90;;
37791;SDS011;29527;55.766;37.570;2023-07-29T03:44:17;6.53;;;4.00;;
37791;SDS011;29527;55.766;37.570;2023-07-29T03:46:44;5.28;;;4.25;;
37791;SDS011;29527;55.766;37.570;2023-07-29T03:49:10;6.20;;;4.28;;
37791;SDS011;29527;55.766;37.570;2023-07-29T03:51:35;4.82;;;4.00;;
37791;SDS011;29527;55.766;37.570;2023-07-29T03:54:01;5.78;;;4.55;;
37791;SDS011;29527;55.766;37.570;2023-07-29T03:56:27;4.70;;;3.97;;
37791;SDS011;29527;55.766;37.570;2023-07-29T03:58:52;5.00;;;4.00;;
37791;SDS011;29527;55.766;37.570;2023-07-29T04:01:18;4.80;;;3.92;;
37791;SDS011;29527;55.766;37.570;2023-07-29T04:03:44;5.85;;;4.15;;
37791;SDS011;29527;55.766;37.570;2023-07-29T04:06:11;5.13;;;4.63;;
37791;SDS011;29527;55.766;37.570;2023-07-29T04:08:37;5.00;;;4.15;;
37791;SDS011;29527;55.766;37.570;2023-07-29T04:11:03;5.70;;;3.92;;
37791;SDS011;29527;55.766;37.570;2023-07-29T04:13:28;6.57;;;4.53;;
37791;SDS011;29527;55.766;37.570;2023-07-29T04:15:54;5.88;;;4.30;;
37791;SDS011;29527;55.766;37.570;2023-07-29T04:18:19;4.72;;;3.83;;
37791;SDS011;29527;55.766;37.570;2023-07-29T04:20:45;6.25;;;4.32;;
37791;SDS011;29527;55.766;37.570;2023-07-29T04:23:11;4.50;;;4.10;;
37791;SDS011;29527;55.766;37.570;2023-07-29T04:25:36;6.68;;;4.57;;
37791;SDS011;29527;55.766;37.570;2023-07-29T04:28:02;5.15;;;4.30;;
37791;SDS011;29527;55.766;37.570;2023-07-29T04:30:30;8.00;;;4.20;;
37791;SDS011;29527;55.766;37.570;2023-07-29T04:32:55;5.10;;;3.50;;
37791;SDS011;29527;55.766;37.570;2023-07-29T04:35:21;4.25;;;3.85;;
37791;SDS011;29527;55.766;37.570;2023-07-29T04:37:46;3.97;;;3.67;;
37791;SDS011;29527;55.766;37.570;2023-07-29T04:40:13;8.77;;;4.03;;
37791;SDS011;29527;55.766;37.570;2023-07-29T04:42:38;4.78;;;4.28;;
37791;SDS011;29527;55.766;37.570;2023-07-29T04:45:05;5.80;;;3.58;;
37791;SDS011;29527;55.766;37.570;2023-07-29T04:47:31;5.72;;;3.90;;
37791;SDS011;29527;55.766;37.570;2023-07-29T04:49:57;5.10;;;3.95;;
37791;SDS011;29527;55.766;37.570;2023-07-29T04:52:22;4.95;;;3.90;;
37791;SDS011;29527;55.766;37.570;2023-07-29T04:54:48;4.00;;;3.60;;
37791;SDS011;29527;55.766;37.570;2023-07-29T04:57:13;4.18;;;3.58;;
37791;SDS011;29527;55.766;37.570;2023-07-29T04:59:39;6.53;;;3.63;;
37791;SDS011;29527;55.766;37.570;2023-07-29T05:02:04;4.20;;;3.80;;
37791;SDS011;29527;55.766;37.570;2023-07-29T05:04:30;5.35;;;3.78;;
37791;SDS011;29527;55.766;37.570;2023-07-29T05:06:55;4.40;;;3.50;;
37791;SDS011;29527;55.766;37.570;2023-07-29T05:09:21;5.00;;;3.80;;
37791;SDS011;29527;55.766;37.570;2023-07-29T05:11:46;4.53;;;3.70;;
37791;SDS011;29527;55.766;37.570;2023-07-29T05:14:14;4.13;;;3.60;;
37791;SDS011;29527;55.766;37.570;2023-07-29T05:16:40;4.30;;;3.90;;
37791;SDS011;29527;55.766;37.570;2023-07-29T05:19:06;5.43;;;3.85;;
37791;SDS011;29527;55.766;37.570;2023-07-29T05:21:32;3.33;;;3.03;;
37791;SDS011;29527;55.766;37.570;2023-07-29T05:23:58;3.78;;;2.97;;
37791;SDS011;29527;55.766;37.570;2023-07-29T05:26:23;5.57;;;3.22;;
37791;SDS011;29527;55.766;37.570;2023-07-29T05:28:49;4.20;;;3.50;;
37791;SDS011;29527;55.766;37.570;2023-07-29T05:31:14;4.10;;;3.40;;
37791;SDS011;29527;55.766;37.570;2023-07-29T05:33:40;2.83;;;2.53;;
37791;SDS011;29527;55.766;37.570;2023-07-29T05:36:05;5.55;;;2.65;;
37791;SDS011;29527;55.766;37.570;2023-07-29T05:38:31;3.88;;;2.78;;
37791;SDS011;29527;55.766;37.570;2023-07-29T05:40:56;4.32;;;2.80;;
37791;SDS011;29527;55.766;37.570;2023-07-29T05:43:23;7.43;;;3.08;;
37791;SDS011;29527;55.766;37.570;2023-07-29T05:45:49;3.22;;;2.92;;
37791;SDS011;29527;55.766;37.570;2023-07-29T05:48:15;4.60;;;3.30;;
37791;SDS011;29527;55.766;37.570;2023-07-29T05:50:41;6.32;;;3.10;;
37791;SDS011;29527;55.766;37.570;2023-07-29T05:53:06;6.35;;;2.95;;
37791;SDS011;29527;55.766;37.570;2023-07-29T05:55:32;3.90;;;3.10;;
37791;SDS011;29527;55.766;37.570;2023-07-29T05:57:57;4.38;;;2.90;;
37791;SDS011;29527;55.766;37.570;2023-07-29T06:00:23;4.43;;;2.92;;
37791;SDS011;29527;55.766;37.570;2023-07-29T06:02:48;4.10;;;2.40;;
37791;SDS011;29527;55.766;37.570;2023-07-29T06:05:14;9.43;;;3.00;;
37791;SDS011;29527;55.766;37.570;2023-07-29T06:07:40;3.28;;;2.90;;
37791;SDS011;29527;55.766;37.570;2023-07-29T06:10:09;3.70;;;3.17;;
37791;SDS011;29527;55.766;37.570;2023-07-29T06:12:38;4.93;;;3.38;;
37791;SDS011;29527;55.766;37.570;2023-07-29T06:15:04;12.88;;;3.42;;
37791;SDS011;29527;55.766;37.570;2023-07-29T06:17:30;4.55;;;2.55;;
37791;SDS011;29527;55.766;37.570;2023-07-29T06:19:56;4.35;;;2.70;;
37791;SDS011;29527;55.766;37.570;2023-07-29T06:22:21;4.68;;;3.08;;
37791;SDS011;29527;55.766;37.570;2023-07-29T06:24:47;4.22;;;3.10;;
37791;SDS011;29527;55.766;37.570;2023-07-29T06:27:12;3.78;;;3.00;;
37791;SDS011;29527;55.766;37.570;2023-07-29T06:29:38;3.88;;;3.40;;
37791;SDS011;29527;55.766;37.570;2023-07-29T06:32:04;4.05;;;3.20;;
37791;SDS011;29527;55.766;37.570;2023-07-29T06:34:29;4.47;;;3.28;;
37791;SDS011;29527;55.766;37.570;2023-07-29T06:36:55;3.30;;;3.00;;
37791;SDS011;29527;55.766;37.570;2023-07-29T06:39:21;5.07;;;2.78;;
37791;SDS011;29527;55.766;37.570;2023-07-29T06:41:46;6.38;;;3.38;;
37791;SDS011;29527;55.766;37.570;2023-07-29T06:44:12;5.55;;;3.10;;
37791;SDS011;29527;55.766;37.570;2023-07-29T06:46:37;3.83;;;3.40;;
37791;SDS011;29527;55.766;37.570;2023-07-29T06:49:03;5.25;;;3.15;;
37791;SDS011;29527;55.766;37.570;2023-07-29T06:51:28;4.72;;;3.28;;
37791;SDS011;29527;55.766;37.570;2023-07-29T06:53:57;5.18;;;3.28;;
37791;SDS011;29527;55.766;37.570;2023-07-29T06:56:23;4.53;;;2.90;;
37791;SDS011;29527;55.766;37.570;2023-07-29T06:58:48;4.22;;;3.10;;
37791;SDS011;29527;55.766;37.570;2023-07-29T07:01:14;5.78;;;3.58;;
37791;SDS011;29527;55.766;37.570;2023-07-29T07:03:39;6.70;;;3.90;;
37791;SDS011;29527;55.766;37.570;2023-07-29T07:06:05;5.82;;;3.60;;
37791;SDS011;29527;55.766;37.570;2023-07-29T07:08:31;4.20;;;3.20;;
37791;SDS011;29527;55.766;37.570;2023-07-29T07:10:56;4.13;;;3.63;;
37791;SDS011;29527;55.766;37.570;2023-07-29T07:13:23;3.35;;;3.03;;
37791;SDS011;29527;55.766;37.570;2023-07-29T07:15:49;4.70;;;3.50;;
37791;SDS011;29527;55.766;37.570;2023-07-29T07:18:14;8.13;;;3.70;;
37791;SDS011;29527;55.766;37.570;2023-07-29T07:20:40;6.28;;;3.25;;
37791;SDS011;29527;55.766;37.570;2023-07-29T07:23:05;3.55;;;3.25;;
37791;SDS011;29527;55.766;37.570;2023-07-29T07:25:33;7.55;;;3.63;;
37791;SDS011;29527;55.766;37.570;2023-07-29T07:27:59;7.15;;;3.50;;
37791;SDS011;29527;55.766;37.570;2023-07-29T07:30:25;4.93;;;3.97;;
37791;SDS011;29527;55.766;37.570;2023-07-29T07:32:50;4.85;;;4.25;;
37791;SDS011;29527;55.766;37.570;2023-07-29T07:35:16;10.10;;;4.40;;
37791;SDS011;29527;55.766;37.570;2023-07-29T07:37:41;7.82;;;4.00;;
37791;SDS011;29527;55.766;37.570;2023-07-29T07:40:07;5.63;;;3.85;;
37791;SDS011;29527;55.766;37.570;2023-07-29T07:42:32;7.22;;;4.60;;
37791;SDS011;29527;55.766;37.570;2023-07-29T07:44:58;9.35;;;4.30;;
37791;SDS011;29527;55.766;37.570;2023-07-29T07:47:23;5.82;;;3.85;;
37791;SDS011;29527;55.766;37.570;2023-07-29T07:49:49;7.70;;;4.40;;
37791;SDS011;29527;55.766;37.570;2023-07-29T07:52:15;6.50;;;3.95;;
37791;SDS011;29527;55.766;37.570;2023-07-29T07:54:41;4.35;;;3.38;;
37791;SDS011;29527;55.766;37.570;2023-07-29T07:57:06;5.22;;;3.90;;
37791;SDS011;29527;55.766;37.570;2023-07-29T07:59:31;5.82;;;3.42;;
37791;SDS011;29527;55.766;37.570;2023-07-29T08:01:57;5.53;;;3.55;;
37791;SDS011;29527;55.766;37.570;2023-07-29T08:04:23;7.20;;;3.70;;
37791;SDS011;29527;55.766;37.570;2023-07-29T08:06:48;6.13;;;3.80;;
37791;SDS011;29527;55.766;37.570;2023-07-29T08:09:14;5.40;;;3.80;;
37791;SDS011;29527;55.766;37.570;2023-07-29T08:11:40;7.00;;;3.90;;
37791;SDS011;29527;55.766;37.570;2023-07-29T08:14:05;5.70;;;3.60;;
37791;SDS011;29527;55.766;37.570;2023-07-29T08:16:31;5.82;;;3.80;;
37791;SDS011;29527;55.766;37.570;2023-07-29T08:18:56;6.38;;;3.88;;
37791;SDS011;29527;55.766;37.570;2023-07-29T08:21:22;4.85;;;3.53;;
37791;SDS011;29527;55.766;37.570;2023-07-29T08:23:47;4.90;;;3.92;;
37791;SDS011;29527;55.766;37.570;2023-07-29T08:26:13;3.67;;;3.38;;
37791;SDS011;29527;55.766;37.570;2023-07-29T08:28:38;6.32;;;3.90;;
37791;SDS011;29527;55.766;37.570;2023-07-29T08:31:05;4.22;;;3.17;;
37791;SDS011;29527;55.766;37.570;2023-07-29T08:33:32;6.47;;;3.40;;
37791;SDS011;29527;55.766;37.570;2023-07-29T08:36:01;4.18;;;3.30;;
37791;SDS011;29527;55.766;37.570;2023-07-29T08:38:27;4.40;;;2.88;;
37791;SDS011;29527;55.766;37.570;2023-07-29T08:43:38;3.80;;;3.00;;
37791;SDS011;29527;55.766;37.570;2023-07-29T08:46:08;6.15;;;3.30;;
37791;SDS011;29527;55.766;37.570;2023-07-29T08:48:41;4.20;;;3.20;;
37791;SDS011;29527;55.766;37.570;2023-07-29T08:51:09;4.65;;;3.00;;
37791;SDS011;29527;55.766;37.570;2023-07-29T08:53:36;3.78;;;3.40;;
37791;SDS011;29527;55.766;37.570;2023-07-29T08:56:02;5.50;;;4.00;;
37791;SDS011;29527;55.766;37.570;2023-07-29T08:58:29;5.05;;;3.90;;
37791;SDS011;29527;55.766;37.570;2023-07-29T09:00:54;6.55;;;3.78;;
37791;SDS011;29527;55.766;37.570;2023-07-29T09:03:20;4.32;;;3.92;;
37791;SDS011;29527;55.766;37.570;2023-07-29T09:05:46;4.28;;;3.88;;
37791;SDS011;29527;55.766;37.570;2023-07-29T09:08:13;6.07;;;4.18;;
37791;SDS011;29527;55.766;37.570;2023-07-29T09:10:38;6.43;;;4.22;;
37791;SDS011;29527;55.766;37.570;2023-07-29T09:13:04;8.02;;;6.30;;
37791;SDS011;29527;55.766;37.570;2023-07-29T09:15:31;6.97;;;4.32;;
37791;SDS011;29527;55.766;37.570;2023-07-29T09:17:59;7.57;;;4.68;;
37791;SDS011;29527;55.766;37.570;2023-07-29T09:20:33;8.70;;;4.50;;
37791;SDS011;29527;55.766;37.570;2023-07-29T09:22:59;9.23;;;5.00;;
37791;SDS011;29527;55.766;37.570;2023-07-29T09:25:25;7.75;;;5.97;;
37791;SDS011;29527;55.766;37.570;2023-07-29T09:27:53;7.05;;;4.57;;
37791;SDS011;29527;55.766;37.570;2023-07-29T09:30:23;6.25;;;4.80;;
37791;SDS011;29527;55.766;37.570;2023-07-29T09:32:54;8.25;;;4.90;;
37791;SDS011;29527;55.766;37.570;2023-07-29T09:35:20;6.82;;;4.82;;
37791;SDS011;29527;55.766;37.570;2023-07-29T09:37:45;7.18;;;4.72;;
37791;SDS011;29527;55.766;37.570;2023-07-29T09:40:14;7.32;;;5.07;;
37791;SDS011;29527;55.766;37.570;2023-07-29T09:42:50;8.23;;;5.28;;
37791;SDS011;29527;55.766;37.570;2023-07-29T09:45:23;6.15;;;4.82;;
37791;SDS011;29527;55.766;37.570;2023-07-29T09:47:51;5.55;;;4.90;;
37791;SDS011;29527;55.766;37.570;2023-07-29T09:50:17;5.43;;;4.75;;
37791;SDS011;29527;55.766;37.570;2023-07-29T09:52:43;6.55;;;5.10;;
37791;SDS011;29527;55.766;37.570;2023-07-29T09:55:11;6.95;;;4.80;;
37791;SDS011;29527;55.766;37.570;2023-07-29T09:57:38;5.85;;;4.35;;
37791;SDS011;29527;55.766;37.570;2023-07-29T10:00:05;5.43;;;4.88;;
37791;SDS011;29527;55.766;37.570;2023-07-29T10:02:37;4.60;;;4.20;;
37791;SDS011;29527;55.766;37.570;2023-07-29T10:05:04;5.43;;;4.53;;
37791;SDS011;29527;55.766;37.570;2023-07-29T10:07:31;6.05;;;4.68;;
37791;SDS011;29527;55.766;37.570;2023-07-29T10:09:58;6.00;;;4.75;;
37791;SDS011;29527;55.766;37.570;2023-07-29T10:12:25;6.55;;;4.70;;
37791;SDS011;29527;55.766;37.570;2023-07-29T10:14:51;6.18;;;5.28;;
37791;SDS011;29527;55.766;37.570;2023-07-29T10:17:18;5.97;;;5.30;;
37791;SDS011;29527;55.766;37.570;2023-07-29T10:19:46;7.28;;;5.35;;
37791;SDS011;29527;55.766;37.570;2023-07-29T10:22:12;6.22;;;5.28;;
37791;SDS011;29527;55.766;37.570;2023-07-29T10:24:42;6.50;;;5.22;;
37791;SDS011;29527;55.766;37.570;2023-07-29T10:27:08;4.97;;;4.45;;
37791;SDS011;29527;55.766;37.570;2023-07-29T10:29:39;6.90;;;4.82;;
37791;SDS011;29527;55.766;37.570;2023-07-29T10:32:09;5.35;;;4.65;;
37791;SDS011;29527;55.766;37.570;2023-07-29T10:34:36;7.40;;;5.10;;
37791;SDS011;29527;55.766;37.570;2023-07-29T10:37:04;5.45;;;4.75;;
37791;SDS011;29527;55.766;37.570;2023-07-29T10:39:39;6.35;;;5.47;;
37791;SDS011;29527;55.766;37.570;2023-07-29T10:42:06;6.13;;;4.72;;
37791;SDS011;29527;55.766;37.570;2023-07-29T10:47:15;5.80;;;4.88;;
37791;SDS011;29527;55.766;37.570;2023-07-29T10:49:45;6.50;;;4.97;;
37791;SDS011;29527;55.766;37.570;2023-07-29T10:52:15;5.78;;;5.18;;
37791;SDS011;29527;55.766;37.570;2023-07-29T10:54:46;8.32;;;4.95;;
37791;SDS011;29527;55.766;37.570;2023-07-29T10:57:13;4.43;;;4.03;;
37791;SDS011;29527;55.766;37.570;2023-07-29T10:59:40;5.38;;;4.88;;
37791;SDS011;29527;55.766;37.570;2023-07-29T11:02:15;5.55;;;4.85;;
37791;SDS011;29527;55.766;37.570;2023-07-29T11:04:46;5.93;;;4.90;;
37791;SDS011;29527;55.766;37.570;2023-07-29T11:17:40;5.82;;;4.97;;
37791;SDS011;29527;55.766;37.570;2023-07-29T11:20:08;7.47;;;5.38;;
37791;SDS011;29527;55.766;37.570;2023-07-29T11:22:34;4.97;;;4.47;;
37791;SDS011;29527;55.766;37.570;2023-07-29T11:25:00;7.85;;;4.57;;
37791;SDS011;29527;55.766;37.570;2023-07-29T11:27:25;6.50;;;4.82;;
37791;SDS011;29527;55.766;37.570;2023-07-29T11:30:02;5.70;;;4.57;;
37791;SDS011;29527;55.766;37.570;2023-07-29T11:32:33;5.70;;;4.38;;
37791;SDS011;29527;55.766;37.570;2023-07-29T11:37:30;5.70;;;4.75;;
37791;SDS011;29527;55.766;37.570;2023-07-29T11:39:56;6.85;;;4.95;;
37791;SDS011;29527;55.766;37.570;2023-07-29T11:42:21;6.20;;;4.78;;
37791;SDS011;29527;55.766;37.570;2023-07-29T11:44:47;7.63;;;4.97;;
37791;SDS011;29527;55.766;37.570;2023-07-29T11:47:12;7.90;;;5.75;;
37791;SDS011;29527;55.766;37.570;2023-07-29T11:49:39;5.90;;;5.30;;
37791;SDS011;29527;55.766;37.570;2023-07-29T11:52:06;8.25;;;5.13;;
37791;SDS011;29527;55.766;37.570;2023-07-29T11:54:33;5.68;;;5.18;;
37791;SDS011;29527;55.766;37.570;2023-07-29T11:57:00;9.25;;;5.10;;
37791;SDS011;29527;55.766;37.570;2023-07-29T11:59:27;6.88;;;4.50;;
37791;SDS011;29527;55.766;37.570;2023-07-29T12:01:53;7.85;;;4.65;;
37791;SDS011;29527;55.766;37.570;2023-07-29T12:04:19;6.28;;;4.20;;
37791;SDS011;29527;55.766;37.570;2023-07-29T12:06:45;4.55;;;3.95;;
37791;SDS011;29527;55.766;37.570;2023-07-29T12:09:10;6.22;;;4.20;;
37791;SDS011;29527;55.766;37.570;2023-07-29T12:11:38;7.53;;;4.47;;
37791;SDS011;29527;55.766;37.570;2023-07-29T12:14:06;6.80;;;4.63;;
37791;SDS011;29527;55.766;37.570;2023-07-29T12:16:42;6.53;;;4.60;;
37791;SDS011;29527;55.766;37.570;2023-07-29T12:19:08;7.07;;;4.47;;
37791;SDS011;29527;55.766;37.570;2023-07-29T12:21:33;7.03;;;4.85;;
37791;SDS011;29527;55.766;37.570;2023-07-29T12:24:02;6.28;;;4.60;;
37791;SDS011;29527;55.766;37.570;2023-07-29T12:26:28;7.75;;;4.90;;
37791;SDS011;29527;55.766;37.570;2023-07-29T12:28:54;8.60;;;4.70;;
37791;SDS011;29527;55.766;37.570;2023-07-29T12:31:21;6.05;;;4.00;;
37791;SDS011;29527;55.766;37.570;2023-07-29T12:33:47;6.53;;;4.75;;
37791;SDS011;29527;55.766;37.570;2023-07-29T12:36:12;6.05;;;4.65;;
37791;SDS011;29527;55.766;37.570;2023-07-29T12:38:38;6.70;;;4.60;;
37791;SDS011;29527;55.766;37.570;2023-07-29T12:41:03;6.57;;;3.90;;
37791;SDS011;29527;55.766;37.570;2023-07-29T12:43:29;6.15;;;3.63;;
37791;SDS011;29527;55.766;37.570;2023-07-29T12:45:54;6.82;;;4.70;;
37791;SDS011;29527;55.766;37.570;2023-07-29T12:48:23;6.93;;;4.20;;
37791;SDS011;29527;55.766;37.570;2023-07-29T12:50:48;5.28;;;3.70;;
37791;SDS011;29527;55.766;37.570;2023-07-29T12:53:14;4.70;;;4.13;;
37791;SDS011;29527;55.766;37.570;2023-07-29T12:55:39;6.95;;;3.35;;
37791;SDS011;29527;55.766;37.570;2023-07-29T12:58:05;5.43;;;3.17;;
37791;SDS011;29527;55.766;37.570;2023-07-29T13:00:30;6.78;;;3.30;;
37791;SDS011;29527;55.766;37.570;2023-07-29T13:02:56;5.07;;;3.10;;
37791;SDS011;29527;55.766;37.570;2023-07-29T13:05:21;5.43;;;3.10;;
37791;SDS011;29527;55.766;37.570;2023-07-29T13:07:47;4.97;;;3.55;;
37791;SDS011;29527;55.766;37.570;2023-07-29T13:10:13;3.90;;;2.95;;
37791;SDS011;29527;55.766;37.570;2023-07-29T13:12:39;5.35;;;3.10;;
37791;SDS011;29527;55.766;37.570;2023-07-29T13:15:05;5.15;;;3.08;;
37791;SDS011;29527;55.766;37.570;2023-07-29T13:17:32;5.53;;;3.00;;
37791;SDS011;29527;55.766;37.570;2023-07-29T13:19:58;5.53;;;3.30;;
37791;SDS011;29527;55.766;37.570;2023-07-29T13:22:23;3.70;;;2.80;;
37791;SDS011;29527;55.766;37.570;2023-07-29T13:24:49;5.15;;;3.30;;
37791;SDS011;29527;55.766;37.570;2023-07-29T13:27:14;7.68;;;2.90;;
37791;SDS011;29527;55.766;37.570;2023-07-29T13:29:40;5.43;;;2.83;;
37791;SDS011;29527;55.766;37.570;2023-07-29T13:32:06;4.80;;;3.25;;
37791;SDS011;29527;55.766;37.570;2023-07-29T13:34:32;4.28;;;2.97;;
37791;SDS011;29527;55.766;37.570;2023-07-29T13:36:59;3.92;;;3.00;;
37791;SDS011;29527;55.766;37.570;2023-07-29T13:39:25;5.35;;;3.20;;
37791;SDS011;29527;55.766;37.570;2023-07-29T13:41:51;7.00;;;3.75;;
37791;SDS011;29527;55.766;37.570;2023-07-29T13:44:16;6.05;;;3.80;;
37791;SDS011;29527;55.766;37.570;2023-07-29T13:46:41;4.68;;;3.75;;
37791;SDS011;29527;55.766;37.570;2023-07-29T13:49:07;5.45;;;3.42;;
37791;SDS011;29527;55.766;37.570;2023-07-29T13:51:32;8.25;;;3.33;;
37791;SDS011;29527;55.766;37.570;2023-07-29T13:53:58;6.90;;;3.50;;
37791;SDS011;29527;55.766;37.570;2023-07-29T13:56:24;8.07;;;3.30;;
37791;SDS011;29527;55.766;37.570;2023-07-29T13:58:49;7.88;;;3.22;;
37791;SDS011;29527;55.766;37.570;2023-07-29T14:01:15;6.18;;;3.20;;
37791;SDS011;29527;55.766;37.570;2023-07-29T14:03:40;7.28;;;3.40;;
37791;SDS011;29527;55.766;37.570;2023-07-29T14:06:06;10.57;;;3.65;;
37791;SDS011;29527;55.766;37.570;2023-07-29T14:08:32;5.95;;;3.58;;
37791;SDS011;29527;55.766;37.570;2023-07-29T14:10:57;7.97;;;3.63;;
37791;SDS011;29527;55.766;37.570;2023-07-29T14:13:23;7.65;;;3.55;;
37791;SDS011;29527;55.766;37.570;2023-07-29T14:15:48;8.75;;;4.10;;
37791;SDS011;29527;55.766;37.570;2023-07-29T14:18:14;8.60;;;3.67;;
37791;SDS011;29527;55.766;37.570;2023-07-29T14:20:39;7.38;;;3.95;;
37791;SDS011;29527;55.766;37.570;2023-07-29T14:23:05;6.57;;;4.22;;
37791;SDS011;29527;55.766;37.570;2023-07-29T14:25:31;6.20;;;3.65;;
37791;SDS011;29527;55.766;37.570;2023-07-29T14:27:56;6.47;;;3.80;;
37791;SDS011;29527;55.766;37.570;2023-07-29T14:30:22;7.50;;;3.80;;
37791;SDS011;29527;55.766;37.570;2023-07-29T14:32:48;6.55;;;3.67;;
37791;SDS011;29527;55.766;37.570;2023-07-29T14:35:13;10.15;;;3.70;;
37791;SDS011;29527;55.766;37.570;2023-07-29T14:37:39;8.18;;;3.47;;
37791;SDS011;29527;55.766;37.570;2023-07-29T14:40:05;7.97;;;3.53;;
37791;SDS011;29527;55.766;37.570;2023-07-29T14:42:31;5.97;;;4.10;;
37791;SDS011;29527;55.766;37.570;2023-07-29T14:44:56;6.88;;;3.55;;
37791;SDS011;29527;55.766;37.570;2023-07-29T14:47:22;8.52;;;3.47;;
37791;SDS011;29527;55.766;37.570;2023-07-29T14:49:48;5.20;;;3.72;;
37791;SDS011;29527;55.766;37.570;2023-07-29T14:52:14;6.43;;;3.92;;
37791;SDS011;29527;55.766;37.570;2023-07-29T14:54:39;8.05;;;4.30;;